sensor_id;sensor_type;location;lat;lon;timestamp;temperature;humidity
23801;DHT22;12081;48.614;10.226;2023-07-13T00:41:08;16.70;99.90
23801;DHT22;12081;48.614;10.226;2023-07-13T00:43:53;16.80;99.90
23801;DHT22;12081;48.614;10.226;2023-07-13T05:30:51;16.60;99.90
23801;DHT22;12081;48.614;10.226;2023-07-13T05:33:35;16.60;99.90
23801;DHT22;12081;48.614;10.226;2023-07-13T05:36:20;16.50;99.90
23801;DHT22;12081;48.614;10.226;2023-07-13T05:39:05;16.40;99.90
23801;DHT22;12081;48.614;10.226;2023-07-13T05:41:49;16.40;99.90
23801;DHT22;12081;48.614;10.226;2023-07-13T05:44:33;16.40;99.90
23801;DHT22;12081;48.614;10.226;2023-07-13T05:47:17;16.50;99.90
23801;DHT22;12081;48.614;10.226;2023-07-13T05:50:01;16.60;99.90
23801;DHT22;12081;48.614;10.226;2023-07-13T05:52:45;16.60;99.90
23801;DHT22;12081;48.614;10.226;2023-07-13T05:55:29;16.60;99.90
23801;DHT22;12081;48.614;10.226;2023-07-13T05:58:14;16.70;99.90
23801;DHT22;12081;48.614;10.226;2023-07-13T06:01:07;16.80;99.90
23801;DHT22;12081;48.614;10.226;2023-07-13T06:03:52;16.90;99.90
23801;DHT22;12081;48.614;10.226;2023-07-13T06:06:38;17.10;99.90
23801;DHT22;12081;48.614;10.226;2023-07-13T06:09:22;17.20;99.90
23801;DHT22;12081;48.614;10.226;2023-07-13T06:12:07;17.40;99.90
23801;DHT22;12081;48.614;10.226;2023-07-13T06:14:51;17.50;99.90
23801;DHT22;12081;48.614;10.226;2023-07-13T06:17:35;17.70;99.90
23801;DHT22;12081;48.614;10.226;2023-07-13T06:20:20;17.80;99.90
23801;DHT22;12081;48.614;10.226;2023-07-13T06:23:04;17.90;99.90
23801;DHT22;12081;48.614;10.226;2023-07-13T06:25:49;18.10;99.90
23801;DHT22;12081;48.614;10.226;2023-07-13T06:28:35;18.20;99.90
23801;DHT22;12081;48.614;10.226;2023-07-13T06:31:19;18.20;99.90
23801;DHT22;12081;48.614;10.226;2023-07-13T06:34:04;18.20;99.90
23801;DHT22;12081;48.614;10.226;2023-07-13T06:36:49;18.30;99.90
23801;DHT22;12081;48.614;10.226;2023-07-13T06:39:33;18.40;99.90
23801;DHT22;12081;48.614;10.226;2023-07-13T06:42:18;18.40;99.90
23801;DHT22;12081;48.614;10.226;2023-07-13T06:45:03;18.60;99.90
23801;DHT22;12081;48.614;10.226;2023-07-13T06:47:48;18.80;99.90
23801;DHT22;12081;48.614;10.226;2023-07-13T06:50:33;19.00;99.90
23801;DHT22;12081;48.614;10.226;2023-07-13T06:53:19;19.20;99.90
23801;DHT22;12081;48.614;10.226;2023-07-13T06:56:03;19.50;99.90
23801;DHT22;12081;48.614;10.226;2023-07-13T06:58:48;19.70;99.90
23801;DHT22;12081;48.614;10.226;2023-07-13T07:01:34;20.00;99.90
23801;DHT22;12081;48.614;10.226;2023-07-13T07:04:18;20.10;99.90
23801;DHT22;12081;48.614;10.226;2023-07-13T07:07:03;20.70;99.90
23801;DHT22;12081;48.614;10.226;2023-07-13T07:09:47;20.60;99.90
23801;DHT22;12081;48.614;10.226;2023-07-13T07:12:32;20.80;99.90
23801;DHT22;12081;48.614;10.226;2023-07-13T07:15:17;21.10;99.90
23801;DHT22;12081;48.614;10.226;2023-07-13T07:18:02;21.50;99.90
23801;DHT22;12081;48.614;10.226;2023-07-13T07:20:48;21.80;99.90
23801;DHT22;12081;48.614;10.226;2023-07-13T07:23:33;22.00;99.90
23801;DHT22;12081;48.614;10.226;2023-07-13T07:26:18;22.20;99.90
23801;DHT22;12081;48.614;10.226;2023-07-13T07:29:02;22.40;99.80
23801;DHT22;12081;48.614;10.226;2023-07-13T07:31:47;22.50;98.00
23801;DHT22;12081;48.614;10.226;2023-07-13T07:34:32;23.00;97.70
23801;DHT22;12081;48.614;10.226;2023-07-13T07:37:16;23.90;91.90
23801;DHT22;12081;48.614;10.226;2023-07-13T07:40:01;25.00;90.40
23801;DHT22;12081;48.614;10.226;2023-07-13T07:42:46;25.70;81.90
23801;DHT22;12081;48.614;10.226;2023-07-13T07:45:31;26.10;73.60
23801;DHT22;12081;48.614;10.226;2023-07-13T07:48:15;26.30;60.30
23801;DHT22;12081;48.614;10.226;2023-07-13T07:51:00;25.90;63.10
23801;DHT22;12081;48.614;10.226;2023-07-13T07:53:44;25.80;64.40
23801;DHT22;12081;48.614;10.226;2023-07-13T07:56:29;25.50;65.50
23801;DHT22;12081;48.614;10.226;2023-07-13T07:59:14;25.60;64.50
23801;DHT22;12081;48.614;10.226;2023-07-13T08:01:58;25.90;61.40
23801;DHT22;12081;48.614;10.226;2023-07-13T08:04:42;25.90;60.30
23801;DHT22;12081;48.614;10.226;2023-07-13T08:07:29;26.70;60.80
23801;DHT22;12081;48.614;10.226;2023-07-13T08:10:14;27.00;57.80
23801;DHT22;12081;48.614;10.226;2023-07-13T08:12:58;27.60;57.90
23801;DHT22;12081;48.614;10.226;2023-07-13T08:15:43;27.70;54.70
23801;DHT22;12081;48.614;10.226;2023-07-13T08:18:28;28.10;54.90
23801;DHT22;12081;48.614;10.226;2023-07-13T08:21:12;28.30;55.50
23801;DHT22;12081;48.614;10.226;2023-07-13T08:23:56;28.20;52.60
23801;DHT22;12081;48.614;10.226;2023-07-13T08:26:41;28.00;52.10
23801;DHT22;12081;48.614;10.226;2023-07-13T08:29:26;27.60;51.90
23801;DHT22;12081;48.614;10.226;2023-07-13T08:32:10;27.30;51.70
23801;DHT22;12081;48.614;10.226;2023-07-13T08:34:55;26.60;51.20
23801;DHT22;12081;48.614;10.226;2023-07-13T08:37:39;26.60;51.40
23801;DHT22;12081;48.614;10.226;2023-07-13T08:40:26;26.70;51.80
23801;DHT22;12081;48.614;10.226;2023-07-13T08:43:20;26.50;49.50
23801;DHT22;12081;48.614;10.226;2023-07-13T08:49:47;26.00;50.00
23801;DHT22;12081;48.614;10.226;2023-07-13T08:56:19;25.20;52.10
23801;DHT22;12081;48.614;10.226;2023-07-13T09:02:57;24.80;52.60
23801;DHT22;12081;48.614;10.226;2023-07-13T09:05:49;25.60;51.50
23801;DHT22;12081;48.614;10.226;2023-07-13T09:08:54;26.80;52.90
23801;DHT22;12081;48.614;10.226;2023-07-13T09:11:59;28.20;49.50
23801;DHT22;12081;48.614;10.226;2023-07-13T09:14:50;28.60;47.70
23801;DHT22;12081;48.614;10.226;2023-07-13T09:17:46;28.70;48.50
23801;DHT22;12081;48.614;10.226;2023-07-13T09:20:57;28.70;48.90
23801;DHT22;12081;48.614;10.226;2023-07-13T09:23:43;28.60;46.80
23801;DHT22;12081;48.614;10.226;2023-07-13T09:26:28;28.40;47.40
23801;DHT22;12081;48.614;10.226;2023-07-13T09:29:33;28.30;47.60
23801;DHT22;12081;48.614;10.226;2023-07-13T09:32:23;28.40;47.70
23801;DHT22;12081;48.614;10.226;2023-07-13T09:35:16;28.40;46.40
23801;DHT22;12081;48.614;10.226;2023-07-13T09:38:18;29.10;47.60
23801;DHT22;12081;48.614;10.226;2023-07-13T09:44:28;30.20;46.70
23801;DHT22;12081;48.614;10.226;2023-07-13T09:50:14;30.20;46.10
23801;DHT22;12081;48.614;10.226;2023-07-13T09:53:00;30.40;45.10
23801;DHT22;12081;48.614;10.226;2023-07-13T09:55:47;30.30;44.90
23801;DHT22;12081;48.614;10.226;2023-07-13T09:58:35;29.90;44.00
23801;DHT22;12081;48.614;10.226;2023-07-13T10:01:38;29.50;44.20
23801;DHT22;12081;48.614;10.226;2023-07-13T10:04:31;29.10;44.90
23801;DHT22;12081;48.614;10.226;2023-07-13T10:07:16;28.60;44.90
23801;DHT22;12081;48.614;10.226;2023-07-13T10:10:02;28.20;48.40
23801;DHT22;12081;48.614;10.226;2023-07-13T10:12:47;28.00;47.70
23801;DHT22;12081;48.614;10.226;2023-07-13T10:15:32;28.50;46.50
23801;DHT22;12081;48.614;10.226;2023-07-13T10:18:17;29.00;46.70
23801;DHT22;12081;48.614;10.226;2023-07-13T10:21:32;28.70;46.90
23801;DHT22;12081;48.614;10.226;2023-07-13T10:24:19;28.20;46.80
23801;DHT22;12081;48.614;10.226;2023-07-13T10:27:19;28.20;47.90
23801;DHT22;12081;48.614;10.226;2023-07-13T10:30:15;28.10;47.20
23801;DHT22;12081;48.614;10.226;2023-07-13T10:33:03;28.10;48.30
23801;DHT22;12081;48.614;10.226;2023-07-13T10:36:00;27.70;48.20
23801;DHT22;12081;48.614;10.226;2023-07-13T10:38:47;27.50;50.70
23801;DHT22;12081;48.614;10.226;2023-07-13T10:41:37;27.60;50.40
23801;DHT22;12081;48.614;10.226;2023-07-13T10:44:26;28.10;49.70
23801;DHT22;12081;48.614;10.226;2023-07-13T10:47:15;28.50;49.70
23801;DHT22;12081;48.614;10.226;2023-07-13T10:50:03;29.00;47.20
23801;DHT22;12081;48.614;10.226;2023-07-13T10:52:53;29.20;49.20
23801;DHT22;12081;48.614;10.226;2023-07-13T10:58:40;29.10;47.40
23801;DHT22;12081;48.614;10.226;2023-07-13T11:01:25;29.00;48.00
23801;DHT22;12081;48.614;10.226;2023-07-13T11:04:12;28.30;48.70
23801;DHT22;12081;48.614;10.226;2023-07-13T11:07:16;28.10;49.10
23801;DHT22;12081;48.614;10.226;2023-07-13T11:10:06;27.70;48.20
23801;DHT22;12081;48.614;10.226;2023-07-13T11:16:44;27.70;48.70
23801;DHT22;12081;48.614;10.226;2023-07-13T11:19:38;28.60;49.20
23801;DHT22;12081;48.614;10.226;2023-07-13T11:22:25;29.20;47.50
23801;DHT22;12081;48.614;10.226;2023-07-13T11:25:27;30.30;45.80
23801;DHT22;12081;48.614;10.226;2023-07-13T11:28:27;31.20;44.60
23801;DHT22;12081;48.614;10.226;2023-07-13T11:31:15;32.10;42.80
23801;DHT22;12081;48.614;10.226;2023-07-13T11:34:00;32.30;42.90
23801;DHT22;12081;48.614;10.226;2023-07-13T11:36:45;31.00;43.00
23801;DHT22;12081;48.614;10.226;2023-07-13T11:39:31;30.80;43.40
23801;DHT22;12081;48.614;10.226;2023-07-13T11:42:18;30.80;44.80
23801;DHT22;12081;48.614;10.226;2023-07-13T11:45:19;30.50;44.00
23801;DHT22;12081;48.614;10.226;2023-07-13T11:48:22;30.60;44.40
23801;DHT22;12081;48.614;10.226;2023-07-13T11:51:25;30.80;43.50
23801;DHT22;12081;48.614;10.226;2023-07-13T11:54:28;30.30;43.40
23801;DHT22;12081;48.614;10.226;2023-07-13T11:57:28;30.50;43.80
23801;DHT22;12081;48.614;10.226;2023-07-13T12:00:17;30.30;43.90
23801;DHT22;12081;48.614;10.226;2023-07-13T12:03:03;30.40;42.10
23801;DHT22;12081;48.614;10.226;2023-07-13T12:05:56;29.90;43.80
23801;DHT22;12081;48.614;10.226;2023-07-13T12:08:41;29.80;43.60
23801;DHT22;12081;48.614;10.226;2023-07-13T12:11:27;30.10;43.20
23801;DHT22;12081;48.614;10.226;2023-07-13T12:14:15;30.40;42.30
23801;DHT22;12081;48.614;10.226;2023-07-13T12:16:59;30.40;43.10
23801;DHT22;12081;48.614;10.226;2023-07-13T12:19:44;30.10;43.30
23801;DHT22;12081;48.614;10.226;2023-07-13T12:22:30;29.90;43.90
23801;DHT22;12081;48.614;10.226;2023-07-13T12:25:15;29.90;41.90
23801;DHT22;12081;48.614;10.226;2023-07-13T12:28:39;30.40;42.80
23801;DHT22;12081;48.614;10.226;2023-07-13T12:31:30;31.20;42.70
23801;DHT22;12081;48.614;10.226;2023-07-13T12:34:17;31.40;41.70
23801;DHT22;12081;48.614;10.226;2023-07-13T12:37:03;31.20;42.20
23801;DHT22;12081;48.614;10.226;2023-07-13T12:39:53;31.00;43.50
23801;DHT22;12081;48.614;10.226;2023-07-13T12:42:39;31.20;42.70
23801;DHT22;12081;48.614;10.226;2023-07-13T12:45:26;31.20;42.70
23801;DHT22;12081;48.614;10.226;2023-07-13T12:48:16;30.80;42.40
23801;DHT22;12081;48.614;10.226;2023-07-13T12:51:03;30.30;42.70
23801;DHT22;12081;48.614;10.226;2023-07-13T12:53:55;30.10;43.30
23801;DHT22;12081;48.614;10.226;2023-07-13T12:56:40;29.80;42.80
23801;DHT22;12081;48.614;10.226;2023-07-13T12:59:30;29.70;44.00
23801;DHT22;12081;48.614;10.226;2023-07-13T13:02:29;30.00;45.10
23801;DHT22;12081;48.614;10.226;2023-07-13T13:05:14;30.40;42.80
23801;DHT22;12081;48.614;10.226;2023-07-13T13:07:59;30.50;42.40
23801;DHT22;12081;48.614;10.226;2023-07-13T13:10:43;30.70;42.40
23801;DHT22;12081;48.614;10.226;2023-07-13T13:13:29;30.40;42.30
23801;DHT22;12081;48.614;10.226;2023-07-13T13:16:30;29.70;42.10
23801;DHT22;12081;48.614;10.226;2023-07-13T13:22:07;29.30;44.60
23801;DHT22;12081;48.614;10.226;2023-07-13T13:24:52;29.10;45.60
23801;DHT22;12081;48.614;10.226;2023-07-13T13:27:36;28.80;44.50
23801;DHT22;12081;48.614;10.226;2023-07-13T13:30:21;28.70;45.50
23801;DHT22;12081;48.614;10.226;2023-07-13T13:33:10;28.60;45.30
23801;DHT22;12081;48.614;10.226;2023-07-13T13:35:56;28.50;45.60
23801;DHT22;12081;48.614;10.226;2023-07-13T13:38:41;28.60;45.30
23801;DHT22;12081;48.614;10.226;2023-07-13T13:41:26;28.50;44.70
23801;DHT22;12081;48.614;10.226;2023-07-13T13:44:10;28.80;44.50
23801;DHT22;12081;48.614;10.226;2023-07-13T13:46:56;28.90;43.70
23801;DHT22;12081;48.614;10.226;2023-07-13T13:49:40;28.80;42.70
23801;DHT22;12081;48.614;10.226;2023-07-13T13:52:25;28.70;44.40
23801;DHT22;12081;48.614;10.226;2023-07-13T13:55:19;28.60;45.90
23801;DHT22;12081;48.614;10.226;2023-07-13T13:58:04;28.40;47.50
23801;DHT22;12081;48.614;10.226;2023-07-13T14:00:49;28.50;48.60
23801;DHT22;12081;48.614;10.226;2023-07-13T14:03:34;28.60;46.40
23801;DHT22;12081;48.614;10.226;2023-07-13T14:06:19;28.60;47.00
23801;DHT22;12081;48.614;10.226;2023-07-13T14:09:07;28.50;48.60
23801;DHT22;12081;48.614;10.226;2023-07-13T14:11:52;28.70;47.90
23801;DHT22;12081;48.614;10.226;2023-07-13T14:14:37;28.80;47.20
23801;DHT22;12081;48.614;10.226;2023-07-13T14:17:25;29.10;47.40
23801;DHT22;12081;48.614;10.226;2023-07-13T14:20:12;29.20;47.70
23801;DHT22;12081;48.614;10.226;2023-07-13T14:22:56;29.40;46.80
23801;DHT22;12081;48.614;10.226;2023-07-13T14:25:42;29.00;47.00
23801;DHT22;12081;48.614;10.226;2023-07-13T14:28:27;28.40;46.30
23801;DHT22;12081;48.614;10.226;2023-07-13T14:31:14;28.40;45.60
23801;DHT22;12081;48.614;10.226;2023-07-13T14:33:59;28.50;45.90
23801;DHT22;12081;48.614;10.226;2023-07-13T14:36:48;28.80;42.80
23801;DHT22;12081;48.614;10.226;2023-07-13T14:39:33;29.10;43.90
23801;DHT22;12081;48.614;10.226;2023-07-13T14:42:17;29.10;44.00
23801;DHT22;12081;48.614;10.226;2023-07-13T14:48:43;29.10;44.60
23801;DHT22;12081;48.614;10.226;2023-07-13T14:51:30;28.80;43.80
23801;DHT22;12081;48.614;10.226;2023-07-13T14:54:15;28.70;43.10
23801;DHT22;12081;48.614;10.226;2023-07-13T14:57:00;29.00;44.00
23801;DHT22;12081;48.614;10.226;2023-07-13T14:59:45;29.20;42.20
23801;DHT22;12081;48.614;10.226;2023-07-13T15:02:34;29.40;45.40
23801;DHT22;12081;48.614;10.226;2023-07-13T15:05:24;29.50;42.40
23801;DHT22;12081;48.614;10.226;2023-07-13T15:08:09;29.40;42.50
23801;DHT22;12081;48.614;10.226;2023-07-13T15:10:54;29.30;42.80
23801;DHT22;12081;48.614;10.226;2023-07-13T15:13:44;29.00;42.70
23801;DHT22;12081;48.614;10.226;2023-07-13T15:16:32;29.10;43.50
23801;DHT22;12081;48.614;10.226;2023-07-13T15:19:19;29.10;42.40
23801;DHT22;12081;48.614;10.226;2023-07-13T15:22:04;29.10;46.00
23801;DHT22;12081;48.614;10.226;2023-07-13T15:24:50;28.70;44.40
23801;DHT22;12081;48.614;10.226;2023-07-13T15:27:34;28.80;45.30
23801;DHT22;12081;48.614;10.226;2023-07-13T15:30:22;28.80;43.70
23801;DHT22;12081;48.614;10.226;2023-07-13T15:33:24;28.60;43.80
23801;DHT22;12081;48.614;10.226;2023-07-13T15:36:09;28.40;45.50
23801;DHT22;12081;48.614;10.226;2023-07-13T15:38:55;28.20;44.40
23801;DHT22;12081;48.614;10.226;2023-07-13T15:41:40;28.30;45.00
23801;DHT22;12081;48.614;10.226;2023-07-13T15:44:30;28.60;44.30
23801;DHT22;12081;48.614;10.226;2023-07-13T15:47:15;28.80;45.30
23801;DHT22;12081;48.614;10.226;2023-07-13T15:50:00;29.00;45.20
23801;DHT22;12081;48.614;10.226;2023-07-13T15:52:48;28.80;44.60
23801;DHT22;12081;48.614;10.226;2023-07-13T15:55:33;28.80;45.40
23801;DHT22;12081;48.614;10.226;2023-07-13T15:58:17;28.40;44.60
23801;DHT22;12081;48.614;10.226;2023-07-13T16:01:02;28.30;46.70
23801;DHT22;12081;48.614;10.226;2023-07-13T16:03:47;28.30;46.30
23801;DHT22;12081;48.614;10.226;2023-07-13T16:06:35;28.10;46.80
23801;DHT22;12081;48.614;10.226;2023-07-13T16:09:22;27.90;45.30
23801;DHT22;12081;48.614;10.226;2023-07-13T16:12:15;27.90;46.30
23801;DHT22;12081;48.614;10.226;2023-07-13T16:14:59;27.90;45.30
23801;DHT22;12081;48.614;10.226;2023-07-13T16:17:48;28.00;45.50
23801;DHT22;12081;48.614;10.226;2023-07-13T16:20:33;28.00;45.80
23801;DHT22;12081;48.614;10.226;2023-07-13T16:23:18;27.90;45.80
23801;DHT22;12081;48.614;10.226;2023-07-13T16:26:02;27.90;45.40
23801;DHT22;12081;48.614;10.226;2023-07-13T16:28:48;27.80;45.00
23801;DHT22;12081;48.614;10.226;2023-07-13T16:31:32;27.60;45.40
23801;DHT22;12081;48.614;10.226;2023-07-13T16:34:17;27.30;46.20
23801;DHT22;12081;48.614;10.226;2023-07-13T16:37:05;27.10;46.30
23801;DHT22;12081;48.614;10.226;2023-07-13T16:39:57;26.80;46.30
23801;DHT22;12081;48.614;10.226;2023-07-13T16:42:41;26.60;47.20
23801;DHT22;12081;48.614;10.226;2023-07-13T16:45:30;26.30;47.10
23801;DHT22;12081;48.614;10.226;2023-07-13T16:48:20;26.40;48.00
23801;DHT22;12081;48.614;10.226;2023-07-13T16:51:06;26.50;48.00
23801;DHT22;12081;48.614;10.226;2023-07-13T16:53:50;26.80;47.70
23801;DHT22;12081;48.614;10.226;2023-07-13T16:56:35;26.60;46.40
23801;DHT22;12081;48.614;10.226;2023-07-13T16:59:29;26.70;47.70
23801;DHT22;12081;48.614;10.226;2023-07-13T17:02:35;26.90;46.60
23801;DHT22;12081;48.614;10.226;2023-07-13T17:05:20;26.90;47.90
23801;DHT22;12081;48.614;10.226;2023-07-13T17:08:13;27.10;47.80
23801;DHT22;12081;48.614;10.226;2023-07-13T17:11:00;27.20;47.80
23801;DHT22;12081;48.614;10.226;2023-07-13T17:13:45;27.10;46.80
23801;DHT22;12081;48.614;10.226;2023-07-13T17:16:30;27.00;46.70
23801;DHT22;12081;48.614;10.226;2023-07-13T17:19:16;26.90;47.40
23801;DHT22;12081;48.614;10.226;2023-07-13T17:22:02;26.70;47.10
23801;DHT22;12081;48.614;10.226;2023-07-13T17:24:49;26.40;47.00
23801;DHT22;12081;48.614;10.226;2023-07-13T17:27:34;26.30;47.30
23801;DHT22;12081;48.614;10.226;2023-07-13T17:30:20;26.10;48.10
23801;DHT22;12081;48.614;10.226;2023-07-13T17:33:07;26.00;47.80
23801;DHT22;12081;48.614;10.226;2023-07-13T17:35:53;25.80;48.50
23801;DHT22;12081;48.614;10.226;2023-07-13T17:38:41;25.80;49.00
23801;DHT22;12081;48.614;10.226;2023-07-13T17:41:26;25.70;48.10
23801;DHT22;12081;48.614;10.226;2023-07-13T17:44:15;25.40;48.00
23801;DHT22;12081;48.614;10.226;2023-07-13T17:47:01;25.30;49.30
23801;DHT22;12081;48.614;10.226;2023-07-13T17:49:49;25.20;48.90
23801;DHT22;12081;48.614;10.226;2023-07-13T17:52:33;24.90;49.00
23801;DHT22;12081;48.614;10.226;2023-07-13T17:55:18;24.70;49.00
23801;DHT22;12081;48.614;10.226;2023-07-13T17:58:05;24.80;50.30
23801;DHT22;12081;48.614;10.226;2023-07-13T18:00:50;24.70;50.80
23801;DHT22;12081;48.614;10.226;2023-07-13T18:03:37;24.20;50.70
23801;DHT22;12081;48.614;10.226;2023-07-13T18:06:32;24.00;51.30
23801;DHT22;12081;48.614;10.226;2023-07-13T18:09:21;23.90;52.00
23801;DHT22;12081;48.614;10.226;2023-07-13T18:12:09;23.70;52.20
23801;DHT22;12081;48.614;10.226;2023-07-13T18:14:53;23.70;53.10
23801;DHT22;12081;48.614;10.226;2023-07-13T18:17:38;23.50;53.20
23801;DHT22;12081;48.614;10.226;2023-07-13T18:20:23;23.30;53.40
23801;DHT22;12081;48.614;10.226;2023-07-13T18:23:16;23.20;53.50
23801;DHT22;12081;48.614;10.226;2023-07-13T18:26:01;23.10;53.90
23801;DHT22;12081;48.614;10.226;2023-07-13T18:28:46;22.90;54.00
23801;DHT22;12081;48.614;10.226;2023-07-13T18:31:35;22.80;54.70
23801;DHT22;12081;48.614;10.226;2023-07-13T18:34:19;22.80;55.20
23801;DHT22;12081;48.614;10.226;2023-07-13T18:37:18;22.50;55.00
23801;DHT22;12081;48.614;10.226;2023-07-13T18:40:04;22.40;55.60
23801;DHT22;12081;48.614;10.226;2023-07-13T18:42:53;22.30;56.60
23801;DHT22;12081;48.614;10.226;2023-07-13T18:45:39;22.20;56.80
23801;DHT22;12081;48.614;10.226;2023-07-13T18:48:25;22.10;57.10
23801;DHT22;12081;48.614;10.226;2023-07-13T18:51:10;22.00;58.10
23801;DHT22;12081;48.614;10.226;2023-07-13T18:53:55;21.70;57.90
23801;DHT22;12081;48.614;10.226;2023-07-13T18:56:39;21.60;58.30
23801;DHT22;12081;48.614;10.226;2023-07-13T18:59:24;21.40;59.30
23801;DHT22;12081;48.614;10.226;2023-07-13T19:02:13;21.20;59.80
23801;DHT22;12081;48.614;10.226;2023-07-13T19:04:58;21.70;60.60
23801;DHT22;12081;48.614;10.226;2023-07-13T19:07:45;20.80;61.20
23801;DHT22;12081;48.614;10.226;2023-07-13T19:10:30;20.50;63.10
23801;DHT22;12081;48.614;10.226;2023-07-13T19:13:21;20.40;63.40
23801;DHT22;12081;48.614;10.226;2023-07-13T19:16:11;20.30;64.70
23801;DHT22;12081;48.614;10.226;2023-07-13T19:18:56;20.20;65.30
23801;DHT22;12081;48.614;10.226;2023-07-13T19:21:44;20.00;66.40
23801;DHT22;12081;48.614;10.226;2023-07-13T19:24:29;19.80;67.70
23801;DHT22;12081;48.614;10.226;2023-07-13T19:27:15;19.70;68.30
23801;DHT22;12081;48.614;10.226;2023-07-13T19:30:00;19.80;68.60
23801;DHT22;12081;48.614;10.226;2023-07-13T19:32:45;19.50;68.70
23801;DHT22;12081;48.614;10.226;2023-07-13T19:35:30;19.40;68.50
23801;DHT22;12081;48.614;10.226;2023-07-13T19:38:20;19.70;69.30
23801;DHT22;12081;48.614;10.226;2023-07-13T19:41:05;19.20;69.60
23801;DHT22;12081;48.614;10.226;2023-07-13T19:43:51;19.10;71.40
23801;DHT22;12081;48.614;10.226;2023-07-13T19:46:36;19.00;72.50
23801;DHT22;12081;48.614;10.226;2023-07-13T19:49:22;18.90;72.00
23801;DHT22;12081;48.614;10.226;2023-07-13T19:52:15;18.70;71.80
23801;DHT22;12081;48.614;10.226;2023-07-13T19:55:00;18.70;72.10
23801;DHT22;12081;48.614;10.226;2023-07-13T19:57:45;18.80;73.00
23801;DHT22;12081;48.614;10.226;2023-07-13T20:00:29;18.70;74.60
23801;DHT22;12081;48.614;10.226;2023-07-13T20:03:14;18.60;75.50
23801;DHT22;12081;48.614;10.226;2023-07-13T20:05:59;18.50;77.60
23801;DHT22;12081;48.614;10.226;2023-07-13T20:08:44;18.40;79.10
23801;DHT22;12081;48.614;10.226;2023-07-13T20:11:28;18.40;79.30
23801;DHT22;12081;48.614;10.226;2023-07-13T20:14:21;18.30;80.40
23801;DHT22;12081;48.614;10.226;2023-07-13T20:20:00;18.20;82.20
23801;DHT22;12081;48.614;10.226;2023-07-13T20:22:44;18.10;84.00
23801;DHT22;12081;48.614;10.226;2023-07-13T20:25:31;18.20;84.90
23801;DHT22;12081;48.614;10.226;2023-07-13T20:28:17;18.10;85.70
23801;DHT22;12081;48.614;10.226;2023-07-13T20:31:02;18.10;87.40
23801;DHT22;12081;48.614;10.226;2023-07-13T20:33:48;18.00;87.40
23801;DHT22;12081;48.614;10.226;2023-07-13T20:36:33;18.10;89.00
23801;DHT22;12081;48.614;10.226;2023-07-13T20:39:19;17.90;90.80
23801;DHT22;12081;48.614;10.226;2023-07-13T20:42:10;17.80;91.60
23801;DHT22;12081;48.614;10.226;2023-07-13T20:44:54;17.70;92.20
23801;DHT22;12081;48.614;10.226;2023-07-13T20:47:39;17.70;93.10
23801;DHT22;12081;48.614;10.226;2023-07-13T20:50:27;17.70;93.70
23801;DHT22;12081;48.614;10.226;2023-07-13T20:53:12;17.70;94.20
23801;DHT22;12081;48.614;10.226;2023-07-13T20:55:58;17.50;95.20
23801;DHT22;12081;48.614;10.226;2023-07-13T20:58:42;17.50;95.40
23801;DHT22;12081;48.614;10.226;2023-07-13T21:01:32;17.50;96.50
23801;DHT22;12081;48.614;10.226;2023-07-13T21:04:17;17.50;96.40
23801;DHT22;12081;48.614;10.226;2023-07-13T21:07:02;17.40;96.00
23801;DHT22;12081;48.614;10.226;2023-07-13T21:09:46;17.40;96.40
23801;DHT22;12081;48.614;10.226;2023-07-13T21:12:31;17.30;96.90
23801;DHT22;12081;48.614;10.226;2023-07-13T21:15:17;17.40;97.30
23801;DHT22;12081;48.614;10.226;2023-07-13T21:18:02;17.30;97.60
23801;DHT22;12081;48.614;10.226;2023-07-13T21:20:49;17.20;96.80
23801;DHT22;12081;48.614;10.226;2023-07-13T21:23:35;17.30;98.70
23801;DHT22;12081;48.614;10.226;2023-07-13T21:26:23;17.20;98.90
23801;DHT22;12081;48.614;10.226;2023-07-13T21:29:07;17.30;99.60
23801;DHT22;12081;48.614;10.226;2023-07-13T21:31:52;17.30;99.40
23801;DHT22;12081;48.614;10.226;2023-07-13T21:34:37;17.50;99.20
23801;DHT22;12081;48.614;10.226;2023-07-13T21:37:21;17.80;99.90
23801;DHT22;12081;48.614;10.226;2023-07-13T21:40:13;17.10;99.90
23801;DHT22;12081;48.614;10.226;2023-07-13T21:42:58;17.20;99.90
23801;DHT22;12081;48.614;10.226;2023-07-13T21:45:44;18.70;99.90
23801;DHT22;12081;48.614;10.226;2023-07-13T21:48:28;17.00;99.90
23801;DHT22;12081;48.614;10.226;2023-07-13T21:51:22;14.10;99.90
23801;DHT22;12081;48.614;10.226;2023-07-13T21:54:14;16.80;99.90
23801;DHT22;12081;48.614;10.226;2023-07-13T21:57:00;19.40;99.90
23801;DHT22;12081;48.614;10.226;2023-07-13T21:59:44;19.00;99.90
23801;DHT22;12081;48.614;10.226;2023-07-13T22:02:28;16.50;99.90
23801;DHT22;12081;48.614;10.226;2023-07-13T22:05:15;15.70;99.90
23801;DHT22;12081;48.614;10.226;2023-07-13T22:07:59;16.50;99.90
23801;DHT22;12081;48.614;10.226;2023-07-13T22:10:44;16.40;99.90
23801;DHT22;12081;48.614;10.226;2023-07-13T22:13:29;19.30;99.90
23801;DHT22;12081;48.614;10.226;2023-07-13T22:19:12;16.90;99.90
23801;DHT22;12081;48.614;10.226;2023-07-13T22:21:57;16.50;99.90
23801;DHT22;12081;48.614;10.226;2023-07-13T22:24:41;17.10;99.90
23801;DHT22;12081;48.614;10.226;2023-07-13T22:27:25;16.10;99.90
23801;DHT22;12081;48.614;10.226;2023-07-13T22:30:15;16.00;99.90
23801;DHT22;12081;48.614;10.226;2023-07-13T22:33:12;16.30;99.90
23801;DHT22;12081;48.614;10.226;2023-07-13T22:35:57;17.90;99.90
23801;DHT22;12081;48.614;10.226;2023-07-13T22:38:41;18.10;99.90
23801;DHT22;12081;48.614;10.226;2023-07-13T22:41:26;16.20;99.90
23801;DHT22;12081;48.614;10.226;2023-07-13T22:44:23;17.80;99.90
23801;DHT22;12081;48.614;10.226;2023-07-13T22:47:14;17.00;99.90
